| time (UTC) | temp F | wind direction | speed MPH | gust MPH | rain 1hr in | rain 24hr in | rain mn in | humidity % | barometer mb |
| 20260905213102 | 91 | 0.0 | 0.0 | 0.00 | 0.00 | 0.00 | 29 | 1018.1 | |
| 20260905211607 | 90 | 0.0 | 0.0 | 0.00 | 0.00 | 0.00 | 30 | 1018.2 | |
| 20260905210100 | 91 | 0.0 | 0.0 | 0.00 | 0.00 | 0.00 | 30 | 1018.4 | |
| 20260905204550 | 90 | 0.0 | 0.0 | 0.00 | 0.00 | 0.00 | 32 | 1018.6 | |
| 20260905203042 | 90 | 0.0 | 0.0 | 0.00 | 0.00 | 0.00 | 28 | 1018.7 | |
| 20260905201548 | 90 | 0.0 | 0.0 | 0.00 | 0.00 | 0.00 | 27 | 1018.9 | |
| 20260905200036 | 90 | 0.0 | 0.0 | 0.00 | 0.00 | 0.00 | 26 | 1018.9 | |
| 20260905194529 | 89 | 0.0 | 0.0 | 0.00 | 0.00 | 0.00 | 29 | 1019.2 | |
| 20260905193024 | 90 | 0.0 | 0.0 | 0.00 | 0.00 | 0.00 | 22 | 1019.3 | |
| 20260905191520 | 90 | 0.0 | 0.0 | 0.00 | 0.00 | 0.00 | 24 | 1019.6 | |
| 20260905190016 | 89 | 0.0 | 0.0 | 0.00 | 0.00 | 0.00 | 22 | 1019.8 | |
| 20260905184514 | 88 | 0.0 | 0.0 | 0.00 | 0.00 | 0.00 | 22 | 1019.9 | |
| 20260905183007 | 88 | 0.0 | 0.0 | 0.00 | 0.00 | 0.00 | 21 | 1019.9 | |
| 20260905181503 | 86 | 0.0 | 0.0 | 0.00 | 0.00 | 0.00 | 20 | 1020.0 | |
| 20260905180104 | 86 | 0.0 | 0.0 | 0.00 | 0.00 | 0.00 | 18 | 1019.9 | |
| 20260905174555 | 86 | 0.0 | 0.0 | 0.00 | 0.00 | 0.00 | 17 | 1020.0 | |
| 20260905173100 | 85 | 0.0 | 0.0 | 0.00 | 0.00 | 0.00 | 18 | 1019.8 | |
| 20260905171546 | 85 | 0.0 | 0.0 | 0.00 | 0.00 | 0.00 | 18 | 1019.8 | |
| 20260905170043 | 85 | 0.0 | 0.0 | 0.00 | 0.00 | 0.00 | 21 | 1019.7 | |
| 20260905164537 | 84 | 0.0 | 0.0 | 0.00 | 0.00 | 0.00 | 22 | 1019.6 | |
| 20260905163032 | 83 | 0.0 | 0.0 | 0.00 | 0.00 | 0.00 | 23 | 1019.6 | |
| 20260905161528 | 81 | 0.0 | 0.0 | 0.00 | 0.00 | 0.00 | 26 | 1019.5 | |
| 20260905160027 | 81 | 0.0 | 0.0 | 0.00 | 0.00 | 0.00 | 26 | 1019.6 | |
| 20260905154519 | 82 | 0.0 | 0.0 | 0.00 | 0.00 | 0.00 | 25 | 1019.6 | |
| 20260905153015 | 81 | 0.0 | 0.0 | 0.00 | 0.00 | 0.00 | 28 | 1019.5 | |
| 20260905151511 | 78 | 0.0 | 0.0 | 0.00 | 0.00 | 0.00 | 32 | 1019.5 | |
| 20260905150006 | 74 | 0.0 | 0.0 | 0.00 | 0.00 | 0.00 | 36 | 1019.5 | |
| 20260905144502 | 69 | 0.0 | 0.0 | 0.00 | 0.00 | 0.00 | 39 | 1019.4 | |
| 20260905143058 | 65 | 0.0 | 0.0 | 0.00 | 0.00 | 0.00 | 43 | 1019.3 | |
| 20260905141554 | 63 | 0.0 | 0.0 | 0.00 | 0.00 | 0.00 | 43 | 1019.3 | |
| 20260905140050 | 62 | 0.0 | 0.0 | 0.00 | 0.00 | 0.00 | 43 | 1019.1 | |
| 20260905134556 | 61 | 0.0 | 0.0 | 0.00 | 0.00 | 0.00 | 42 | 1018.8 | |
| 20260905133044 | 61 | 0.0 | 0.0 | 0.00 | 0.00 | 0.00 | 43 | 1018.8 | |
| 20260905131536 | 61 | 0.0 | 0.0 | 0.00 | 0.00 | 0.00 | 42 | 1018.5 | |
| 20260905130033 | 61 | 0.0 | 0.0 | 0.00 | 0.00 | 0.00 | 42 | 1018.3 | |
| 20260905124536 | 61 | 0.0 | 0.0 | 0.00 | 0.00 | 0.00 | 40 | 1018.3 | |
| 20260905123023 | 62 | 0.0 | 0.0 | 0.00 | 0.00 | 0.00 | 39 | 1018.4 | |
| 20260905121519 | 63 | 0.0 | 0.0 | 0.00 | 0.00 | 0.00 | 38 | 1018.3 | |
| 20260905120014 | 63 | 0.0 | 0.0 | 0.00 | 0.00 | 0.00 | 37 | 1018.3 | |
| 20260905114510 | 63 | 0.0 | 0.0 | 0.00 | 0.00 | 0.00 | 38 | 1018.3 | |
| 20260905113005 | 63 | 0.0 | 0.0 | 0.00 | 0.00 | 0.00 | 38 | 1018.4 | |
| 20260905111502 | 63 | 0.0 | 0.0 | 0.00 | 0.00 | 0.00 | 38 | 1018.4 | |
| 20260905110109 | 63 | 0.0 | 0.0 | 0.00 | 0.00 | 0.00 | 37 | 1018.5 | |
| 20260905104554 | 63 | 0.0 | 0.0 | 0.00 | 0.00 | 0.00 | 39 | 1018.6 | |
| 20260905103051 | 63 | 0.0 | 0.0 | 0.00 | 0.00 | 0.00 | 40 | 1018.7 | |
| 20260905101601 | 62 | 0.0 | 0.0 | 0.00 | 0.00 | 0.00 | 41 | 1018.7 | |
| 20260905100040 | 61 | 0.0 | 0.0 | 0.00 | 0.00 | 0.00 | 46 | 1018.6 | |
| 20260905094535 | 61 | 0.0 | 0.0 | 0.00 | 0.00 | 0.00 | 50 | 1018.8 | |
| 20260905093031 | 62 | 0.0 | 0.0 | 0.00 | 0.00 | 0.00 | 51 | 1018.9 | |
| 20260905091527 | 62 | 0.0 | 0.0 | 0.00 | 0.00 | 0.00 | 49 | 1018.8 | |
| 20260905090022 | 61 | 0.0 | 0.0 | 0.00 | 0.00 | 0.00 | 51 | 1018.9 | |
| 20260905084517 | 61 | 0.0 | 0.0 | 0.00 | 0.00 | 0.00 | 54 | 1019.0 | |
| 20260905083019 | 61 | 0.0 | 0.0 | 0.00 | 0.00 | 0.00 | 57 | 1019.2 | |
| 20260905081510 | 61 | 0.0 | 0.0 | 0.00 | 0.00 | 0.00 | 58 | 1019.3 | |
| 20260905080005 | 62 | 0.0 | 0.0 | 0.00 | 0.00 | 0.00 | 58 | 1019.4 | |
| 20260905074600 | 62 | 0.0 | 0.0 | 0.00 | 0.00 | 0.00 | 58 | 1019.6 | |
| 20260905073056 | 63 | 0.0 | 0.0 | 0.00 | 0.00 | 0.00 | 57 | 1019.7 | |
| 20260905071552 | 63 | 0.0 | 0.0 | 0.00 | 0.00 | 0.00 | 57 | 1019.6 | |
| 20260905070051 | 63 | 0.0 | 0.0 | 0.00 | 0.00 | 0.00 | 57 | 1019.5 | |
| 20260905064544 | 63 | 0.0 | 0.0 | 0.00 | 0.00 | 0.00 | 57 | 1019.4 | |
| 20260905063041 | 63 | 0.0 | 0.0 | 0.00 | 0.00 | 0.00 | 58 | 1019.5 | |
| 20260905061534 | 63 | 0.0 | 0.0 | 0.00 | 0.00 | 0.00 | 59 | 1019.4 | |
| 20260905060032 | 63 | 0.0 | 0.0 | 0.00 | 0.00 | 0.00 | 59 | 1019.4 | |
| 20260905054532 | 64 | 0.0 | 0.0 | 0.00 | 0.00 | 0.00 | 59 | 1019.4 | |
| 20260905053020 | 64 | 0.0 | 0.0 | 0.00 | 0.00 | 0.00 | 58 | 1019.4 | |
| 20260905051516 | 65 | 0.0 | 0.0 | 0.00 | 0.00 | 0.00 | 59 | 1019.3 | |
| 20260905050014 | 65 | 0.0 | 0.0 | 0.00 | 0.00 | 0.00 | 58 | 1019.3 | |
| 20260905044510 | 66 | 0.0 | 0.0 | 0.00 | 0.00 | 0.00 | 56 | 1019.1 | |
| 20260905043004 | 66 | 0.0 | 0.0 | 0.00 | 0.00 | 0.00 | 60 | 1018.9 | |
| 20260905041601 | 67 | 0.0 | 0.0 | 0.00 | 0.00 | 0.00 | 61 | 1018.9 | |
| 20260905040057 | 67 | 0.0 | 0.0 | 0.00 | 0.00 | 0.00 | 61 | 1019.0 | |
| 20260905034551 | 68 | 0.0 | 0.0 | 0.00 | 0.00 | 0.00 | 58 | 1018.8 | |
| 20260905033046 | 69 | 0.0 | 0.0 | 0.00 | 0.00 | 0.00 | 56 | 1018.7 | |
| 20260905031542 | 69 | 0.0 | 0.0 | 0.00 | 0.00 | 0.00 | 55 | 1018.5 | |
| 20260905030044 | 70 | 0.0 | 0.0 | 0.00 | 0.00 | 0.00 | 54 | 1018.2 | |
| 20260905024533 | 71 | 0.0 | 0.0 | 0.00 | 0.00 | 0.00 | 52 | 1018.1 | |
| 20260905023029 | 73 | 0.0 | 0.0 | 0.00 | 0.00 | 0.00 | 50 | 1018.1 | |
| 20260905021525 | 74 | 0.0 | 0.0 | 0.00 | 0.00 | 0.00 | 47 | 1018.3 | |
| 20260905020023 | 75 | 0.0 | 0.0 | 0.00 | 0.00 | 0.00 | 45 | 1018.1 | |
| 20260905014515 | 76 | 0.0 | 0.0 | 0.00 | 0.00 | 0.00 | 43 | 1017.9 | |
| 20260905013015 | 77 | 0.0 | 0.0 | 0.00 | 0.00 | 0.00 | 42 | 1018.0 | |
| 20260905011509 | 78 | 0.0 | 0.0 | 0.00 | 0.00 | 0.00 | 41 | 1018.1 | |
| 20260905010002 | 78 | 0.0 | 0.0 | 0.00 | 0.00 | 0.00 | 39 | 1017.9 | |
| 20260905004626 | 79 | 0.0 | 0.0 | 0.00 | 0.00 | 0.00 | 39 | 1018.0 | |
| 20260905003056 | 80 | 0.0 | 0.0 | 0.00 | 0.00 | 0.00 | 40 | 1018.0 | |
| 20260905001550 | 79 | 0.0 | 0.0 | 0.00 | 0.00 | 0.00 | 41 | 1018.1 | |
| 20260905000046 | 79 | 0.0 | 0.0 | 0.00 | 0.00 | 0.00 | 42 | 1018.2 | |
| 20260904234540 | 80 | 0.0 | 0.0 | 0.00 | 0.00 | 0.00 | 42 | 1018.1 | |
| 20260904233036 | 80 | 0.0 | 0.0 | 0.00 | 0.00 | 0.00 | 41 | 1018.1 | |
| 20260904231536 | 81 | 0.0 | 0.0 | 0.00 | 0.00 | 0.00 | 39 | 1018.1 | |
| 20260904230050 | 81 | 0.0 | 0.0 | 0.00 | 0.00 | 0.00 | 40 | 1018.2 | |
| 20260904224528 | 81 | 0.0 | 0.0 | 0.00 | 0.00 | 0.00 | 41 | 1018.1 | |
| 20260904223020 | 82 | 0.0 | 0.0 | 0.00 | 0.00 | 0.00 | 40 | 1018.2 | |
| 20260904221521 | 82 | 0.0 | 0.0 | 0.00 | 0.00 | 0.00 | 41 | 1018.4 | |
| 20260904220010 | 83 | 0.0 | 0.0 | 0.00 | 0.00 | 0.00 | 39 | 1018.3 | |
| 20260904214513 | 83 | 0.0 | 0.0 | 0.00 | 0.00 | 0.00 | 40 | 1018.4 |